createdAt,value
2018-03-11T00:00:50.217Z,100170.39
2018-03-11T00:03:17.861Z,100177.27
2018-03-11T00:05:45.479Z,100171.31
2018-03-11T00:08:13.212Z,100171.36
2018-03-11T00:10:40.833Z,100166.64
2018-03-11T00:13:08.457Z,100164.53
2018-03-11T00:15:36.206Z,100168.41
2018-03-11T00:18:03.865Z,100172.28
2018-03-11T00:20:31.504Z,100167.16
2018-03-11T00:22:59.183Z,100172.33
2018-03-11T00:25:26.847Z,100173.67
2018-03-11T00:27:55.129Z,100175.39
2018-03-11T00:30:22.773Z,100177.59
2018-03-11T00:32:50.449Z,100174.64
2018-03-11T00:35:18.116Z,100173.83
2018-03-11T00:37:45.786Z,100173.84
2018-03-11T00:40:13.424Z,100169.16
2018-03-11T00:42:41.032Z,100162.28
2018-03-11T00:45:08.664Z,100163.63
2018-03-11T00:47:36.324Z,100156.80
2018-03-11T00:50:03.949Z,100156.38
2018-03-11T00:52:31.593Z,100150.36
2018-03-11T00:54:59.315Z,100149.97
2018-03-11T00:57:26.980Z,100152.08
2018-03-11T00:59:54.597Z,100146.48
2018-03-11T01:02:22.242Z,100143.05
2018-03-11T01:04:49.968Z,100132.70
2018-03-11T01:07:17.604Z,100130.11
2018-03-11T01:09:45.292Z,100127.06
2018-03-11T01:12:12.935Z,100130.49
2018-03-11T01:14:40.621Z,100124.47
2018-03-11T01:17:08.237Z,100119.28
2018-03-11T01:19:35.952Z,100121.42
2018-03-11T01:22:03.614Z,100125.28
2018-03-11T01:24:31.274Z,100112.39
2018-03-11T01:26:58.890Z,100111.06
2018-03-11T01:29:26.528Z,100106.33
2018-03-11T01:31:54.157Z,100103.32
2018-03-11T01:34:21.821Z,100108.48
2018-03-11T01:36:49.436Z,100108.87
2018-03-11T01:39:17.148Z,100108.87
2018-03-11T01:41:44.809Z,100115.73
2018-03-11T01:44:12.449Z,100113.59
2018-03-11T01:46:40.128Z,100111.01
2018-03-11T01:49:07.763Z,100107.14
2018-03-11T01:51:35.376Z,100109.30
2018-03-11T01:54:03.129Z,100111.44
2018-03-11T01:56:30.736Z,100115.31
2018-03-11T01:58:58.444Z,100111.45
2018-03-11T02:01:26.052Z,100116.20
2018-03-11T02:03:53.772Z,100108.48
2018-03-11T02:06:21.389Z,100119.18
2018-03-11T02:08:49.008Z,100114.45
2018-03-11T02:11:16.640Z,100104.14
2018-03-11T02:13:44.247Z,100111.87
2018-03-11T02:16:11.876Z,100110.97
2018-03-11T02:18:39.548Z,100110.96
2018-03-11T02:21:09.868Z,100114.39
2018-03-11T02:23:37.477Z,100108.34
2018-03-11T02:26:05.112Z,100115.20
2018-03-11T02:28:32.751Z,100113.44
2018-03-11T02:31:00.384Z,100105.22
2018-03-11T02:33:28.004Z,100108.17
2018-03-11T02:35:55.642Z,100109.42
2018-03-11T02:38:23.254Z,100108.50
2018-03-11T02:40:50.894Z,100104.16
2018-03-11T02:43:18.529Z,100099.86
2018-03-11T02:45:46.165Z,100097.72
2018-03-11T02:48:13.809Z,100099.39
2018-03-11T02:50:41.521Z,100090.80
2018-03-11T02:53:09.147Z,100090.31
2018-03-11T02:55:36.843Z,100084.73
2018-03-11T02:58:04.509Z,100083.88
2018-03-11T03:00:32.129Z,100080.86
2018-03-11T03:02:59.764Z,100080.00
2018-03-11T03:05:27.381Z,100085.16
2018-03-11T03:07:55.068Z,100083.39
2018-03-11T03:10:22.685Z,100088.91
2018-03-11T03:12:50.325Z,100083.27
2018-03-11T03:15:17.940Z,100084.09
2018-03-11T03:17:45.606Z,100087.57
2018-03-11T03:20:13.273Z,100092.30
2018-03-11T03:22:40.924Z,100089.72
2018-03-11T03:25:08.545Z,100091.00
2018-03-11T03:27:36.152Z,100085.38
2018-03-11T03:30:03.786Z,100086.23
2018-03-11T03:32:31.408Z,100081.89
2018-03-11T03:34:59.045Z,100081.88
2018-03-11T03:37:26.700Z,100086.94
2018-03-11T03:39:54.364Z,100090.74
2018-03-11T03:42:21.985Z,100089.83
2018-03-11T03:44:49.694Z,100085.86
2018-03-11T03:47:17.348Z,100085.75
2018-03-11T03:49:45.013Z,100078.83
2018-03-11T03:52:12.634Z,100078.33
2018-03-11T03:54:40.338Z,100078.23
2018-03-11T03:57:08.000Z,100073.39
2018-03-11T03:59:35.773Z,100077.92
2018-03-11T04:02:03.429Z,100082.52
2018-03-11T04:04:31.052Z,100075.97
2018-03-11T04:06:58.756Z,100069.46
2018-03-11T04:09:26.376Z,100060.78
2018-03-11T04:11:54.017Z,100054.67
2018-03-11T04:14:21.637Z,100056.31
2018-03-11T04:16:49.304Z,100048.44
2018-03-11T04:19:16.926Z,100048.80
2018-03-11T04:21:44.628Z,100059.02
2018-03-11T04:24:12.254Z,100068.38
2018-03-11T04:26:39.952Z,100070.41
2018-03-11T04:29:07.565Z,100065.22
2018-03-11T04:31:35.220Z,100069.42
2018-03-11T04:34:02.836Z,100072.36
2018-03-11T04:36:30.881Z,100077.44
2018-03-11T04:38:58.541Z,100073.47
2018-03-11T04:41:26.163Z,100067.41
2018-03-11T04:43:53.905Z,100070.29
2018-03-11T04:46:21.565Z,100073.20
2018-03-11T04:48:49.199Z,100071.80
2018-03-11T04:51:16.808Z,100073.89
2018-03-11T04:53:44.553Z,100066.61
2018-03-11T04:56:12.160Z,100072.64
2018-03-11T04:58:39.794Z,100076.89
2018-03-11T05:01:07.407Z,100085.81
2018-03-11T05:03:35.045Z,100085.73
2018-03-11T05:06:02.648Z,100082.62
2018-03-11T05:08:30.529Z,100079.12
2018-03-11T05:10:58.144Z,100084.63
2018-03-11T05:13:25.744Z,100081.61
2018-03-11T05:15:53.411Z,100083.27
2018-03-11T05:18:21.028Z,100084.06
2018-03-11T05:20:48.673Z,100081.48
2018-03-11T05:23:16.280Z,100078.92
2018-03-11T05:25:43.964Z,100079.41
2018-03-11T05:28:11.580Z,100077.33
2018-03-11T05:30:39.220Z,100074.40
2018-03-11T05:33:06.839Z,100077.05
2018-03-11T05:35:34.492Z,100074.55
2018-03-11T05:38:02.118Z,100073.23
2018-03-11T05:40:30.463Z,100079.18
2018-03-11T05:42:58.109Z,100073.11
2018-03-11T05:45:25.780Z,100071.77
2018-03-11T05:47:53.449Z,100068.34
2018-03-11T05:50:21.107Z,100061.06
2018-03-11T05:52:48.740Z,100060.21
2018-03-11T05:55:16.369Z,100066.57
2018-03-11T05:57:44.012Z,100070.00
2018-03-11T06:00:11.653Z,100062.23
2018-03-11T06:02:39.422Z,100065.66
2018-03-11T06:05:07.045Z,100071.70
2018-03-11T06:07:34.653Z,100061.91
2018-03-11T06:10:02.308Z,100061.49
2018-03-11T06:12:29.964Z,100062.40
2018-03-11T06:14:57.638Z,100063.70
2018-03-11T06:17:25.293Z,100064.14
2018-03-11T06:19:52.933Z,100061.20
2018-03-11T06:22:20.554Z,100056.92
2018-03-11T06:24:48.197Z,100059.12
2018-03-11T06:27:15.804Z,100058.38
2018-03-11T06:29:43.504Z,100055.89
2018-03-11T06:32:11.115Z,100062.45
2018-03-11T06:34:38.756Z,100063.86
2018-03-11T06:37:06.369Z,100061.05
2018-03-11T06:39:34.054Z,100057.81
2018-03-11T06:42:01.692Z,100056.69
2018-03-11T06:44:29.310Z,100061.59
2018-03-11T06:46:57.043Z,100058.28
2018-03-11T06:49:24.656Z,100064.45
2018-03-11T06:51:52.360Z,100059.45
2018-03-11T06:54:20.025Z,100070.33
2018-03-11T06:56:47.657Z,100066.17
2018-03-11T06:59:15.273Z,100063.77
2018-03-11T07:01:43.017Z,100059.66
2018-03-11T07:04:10.682Z,100059.40
2018-03-11T07:06:38.328Z,100061.71
2018-03-11T07:09:06.000Z,100062.73
2018-03-11T07:11:33.662Z,100058.61
2018-03-11T07:14:01.298Z,100054.91
2018-03-11T07:16:28.920Z,100049.95
2018-03-11T07:18:56.664Z,100045.81
2018-03-11T07:21:24.318Z,100051.58
2018-03-11T07:23:51.948Z,100050.92
2018-03-11T07:26:19.565Z,100049.78
2018-03-11T07:28:47.197Z,100043.95
2018-03-11T07:31:14.869Z,100044.13
2018-03-11T07:33:42.524Z,100043.45
2018-03-11T07:36:10.129Z,100043.62
2018-03-11T07:38:37.776Z,100041.20
2018-03-11T07:41:05.380Z,100038.79
2018-03-11T07:43:32.988Z,100041.53
2018-03-11T07:46:00.636Z,100036.96
2018-03-11T07:48:28.257Z,100024.20
2018-03-11T07:50:55.888Z,100030.41
2018-03-11T07:53:23.521Z,100034.46
2018-03-11T07:55:51.157Z,100028.17
2018-03-11T07:58:18.847Z,100027.47
2018-03-11T08:00:46.480Z,100026.80
2018-03-11T08:03:14.176Z,100033.48
2018-03-11T08:05:41.829Z,100032.33
2018-03-11T08:08:09.445Z,100028.58
2018-03-11T08:10:37.165Z,100023.97
2018-03-11T08:13:04.805Z,100025.82
2018-03-11T08:15:32.488Z,100023.76
2018-03-11T08:18:00.149Z,100020.39
2018-03-11T08:20:27.817Z,100019.64
2018-03-11T08:22:55.448Z,100021.44
2018-03-11T08:25:23.056Z,100024.53
2018-03-11T08:27:50.763Z,100025.50
2018-03-11T08:30:18.372Z,100032.47
2018-03-11T08:32:46.004Z,100036.41
2018-03-11T08:35:13.617Z,100036.92
2018-03-11T08:37:41.345Z,100035.69
2018-03-11T08:40:08.960Z,100034.86
2018-03-11T08:42:36.572Z,100039.20
2018-03-11T08:45:04.209Z,100037.95
2018-03-11T08:47:31.900Z,100038.87
2018-03-11T08:49:59.658Z,100030.67
2018-03-11T08:52:27.280Z,100029.83
2018-03-11T08:54:54.920Z,100029.41
2018-03-11T08:57:22.552Z,100035.50
2018-03-11T08:59:50.217Z,100031.20
2018-03-11T09:02:17.876Z,100023.87
2018-03-11T09:04:45.521Z,100026.05
2018-03-11T09:07:13.196Z,100028.67
2018-03-11T09:09:40.868Z,100031.28
2018-03-11T09:12:08.505Z,100040.38
2018-03-11T09:14:36.187Z,100042.09
2018-03-11T09:17:03.835Z,100040.39
2018-03-11T09:19:31.460Z,100049.05
2018-03-11T09:21:59.101Z,100048.61
2018-03-11T09:24:26.741Z,100042.13
2018-03-11T09:26:54.375Z,100035.62
2018-03-11T09:29:21.992Z,100033.48
2018-03-11T09:31:49.727Z,100031.31
2018-03-11T09:34:17.401Z,100029.58
2018-03-11T09:36:45.062Z,100022.20
2018-03-11T09:39:12.812Z,100018.73
2018-03-11T09:41:40.476Z,100013.94
2018-03-11T09:44:08.144Z,100007.00
2018-03-11T09:46:35.788Z,100006.58
2018-03-11T09:49:03.465Z,100005.70
2018-03-11T09:51:31.133Z,100005.23
2018-03-11T09:53:58.763Z,99998.30
2018-03-11T09:56:26.456Z,99999.13
2018-03-11T09:58:54.093Z,99991.73
2018-03-11T10:01:21.777Z,99987.80
2018-03-11T10:03:49.418Z,99983.00
2018-03-11T10:06:17.108Z,99984.67
2018-03-11T10:08:44.751Z,99987.23
2018-03-11T10:11:12.530Z,99982.89
2018-03-11T10:13:40.173Z,99972.86
2018-03-11T10:16:07.788Z,99965.88
2018-03-11T10:18:35.425Z,99962.36
2018-03-11T10:21:03.088Z,99960.56
2018-03-11T10:23:30.805Z,99960.52
2018-03-11T10:25:58.416Z,99962.62
2018-03-11T10:28:26.081Z,99959.51
2018-03-11T10:30:53.718Z,99961.59
2018-03-11T10:33:21.335Z,99965.47
2018-03-11T10:35:48.968Z,99968.88
2018-03-11T10:38:16.628Z,99966.21
2018-03-11T10:40:44.288Z,99973.52
2018-03-11T10:43:11.952Z,99980.39
2018-03-11T10:45:39.584Z,99980.30
2018-03-11T10:48:07.200Z,99983.23
2018-03-11T10:50:34.937Z,99979.28
2018-03-11T10:53:02.596Z,99978.33
2018-03-11T10:55:30.243Z,99978.70
2018-03-11T10:57:57.856Z,99979.03
2018-03-11T11:00:27.328Z,99974.57
2018-03-11T11:03:00.476Z,99963.59
2018-03-11T11:05:28.184Z,99965.73
2018-03-11T11:07:55.805Z,99957.85
2018-03-11T11:10:23.440Z,99959.52
2018-03-11T11:12:51.048Z,99967.30
2018-03-11T11:15:18.698Z,99966.76
2018-03-11T11:17:46.397Z,99962.37
2018-03-11T11:20:14.056Z,99948.80
2018-03-11T11:22:41.668Z,99950.01
2018-03-11T11:25:09.328Z,99944.67
2018-03-11T11:27:37.040Z,99940.20
2018-03-11T11:30:04.655Z,99940.87
2018-03-11T11:32:32.375Z,99932.02
2018-03-11T11:35:00.192Z,99931.42
2018-03-11T11:37:27.863Z,99933.48
2018-03-11T11:39:55.468Z,99927.23
2018-03-11T11:42:23.123Z,99921.88
2018-03-11T11:44:50.788Z,99909.11
2018-03-11T11:47:18.452Z,99899.45
2018-03-11T11:49:46.058Z,99895.88
2018-03-11T11:52:14.268Z,99886.62
2018-03-11T11:54:41.880Z,99875.19
2018-03-11T11:57:10.253Z,99869.00
2018-03-11T11:59:37.864Z,99859.39
2018-03-11T12:02:05.657Z,99859.73
2018-03-11T12:04:33.264Z,99859.18
2018-03-11T12:07:00.935Z,99836.88
2018-03-11T12:09:28.540Z,99827.20
2018-03-11T12:11:56.147Z,99819.69
2018-03-11T12:14:23.780Z,99807.74
2018-03-11T12:16:51.420Z,99790.21
2018-03-11T12:19:19.061Z,99789.73
2018-03-11T12:21:46.750Z,99786.66
2018-03-11T12:24:14.511Z,99794.52
2018-03-11T12:26:42.185Z,99789.70
2018-03-11T12:29:09.825Z,99790.59
2018-03-11T12:31:37.445Z,99788.34
2018-03-11T12:34:05.173Z,99790.86
2018-03-11T12:36:32.826Z,99790.30
2018-03-11T12:39:00.480Z,99779.25
2018-03-11T12:41:28.094Z,99778.27
2018-03-11T12:43:55.712Z,99774.69
2018-03-11T12:46:23.379Z,99777.14
2018-03-11T12:48:50.988Z,99778.71
2018-03-11T12:51:18.624Z,99776.35
2018-03-11T12:53:46.236Z,99772.34
2018-03-11T12:56:13.876Z,99771.80
2018-03-11T12:58:41.616Z,99772.20
2018-03-11T13:01:09.249Z,99772.23
2018-03-11T13:03:37.068Z,99775.81
2018-03-11T13:06:04.784Z,99777.63
2018-03-11T13:08:32.419Z,99773.82
2018-03-11T13:11:00.122Z,99769.66
2018-03-11T13:13:27.740Z,99763.23
2018-03-11T13:15:55.437Z,99767.20
2018-03-11T13:18:24.740Z,99765.05
2018-03-11T13:21:04.285Z,99768.91
2018-03-11T13:23:31.938Z,99764.02
2018-03-11T13:25:59.548Z,99757.87
2018-03-11T13:28:39.057Z,99762.13
2018-03-11T13:31:06.708Z,99761.16
2018-03-11T13:33:46.140Z,99768.10
2018-03-11T13:36:13.808Z,99764.12
2018-03-11T13:38:53.387Z,99773.28
2018-03-11T13:41:21.006Z,99766.73
2018-03-11T13:43:48.640Z,99761.50
2018-03-11T13:46:28.112Z,99771.17
2018-03-11T13:48:55.757Z,99766.88
2018-03-11T13:51:35.209Z,99764.74
2018-03-11T13:54:02.844Z,99769.58
2018-03-11T13:56:30.448Z,99763.12
2018-03-11T13:58:58.081Z,99763.57
2018-03-11T14:01:25.693Z,99763.59
2018-03-11T14:03:53.332Z,99753.52
2018-03-11T14:06:20.988Z,99754.41
2018-03-11T14:08:48.633Z,99743.85
2018-03-11T14:11:16.260Z,99742.91
2018-03-11T14:13:43.891Z,99745.42
2018-03-11T14:16:11.503Z,99754.87
2018-03-11T14:18:39.117Z,99751.63
2018-03-11T14:21:06.860Z,99739.23
2018-03-11T14:23:34.469Z,99739.55
2018-03-11T14:26:02.104Z,99740.38
2018-03-11T14:28:29.712Z,99735.89
2018-03-11T14:30:57.350Z,99744.52
2018-03-11T14:33:24.963Z,99749.27
2018-03-11T14:35:52.603Z,99746.25
2018-03-11T14:38:20.212Z,99740.62
2018-03-11T14:40:47.842Z,99744.18
2018-03-11T14:43:15.472Z,99745.98
2018-03-11T14:45:43.185Z,99746.95
2018-03-11T14:48:10.845Z,99751.27
2018-03-11T14:50:38.497Z,99746.52
2018-03-11T14:53:06.119Z,99742.99
2018-03-11T14:55:33.728Z,99730.26
2018-03-11T14:58:01.361Z,99720.21
2018-03-11T15:00:29.052Z,99707.57
2018-03-11T15:02:56.686Z,99714.97
2018-03-11T15:05:24.301Z,99709.70
2018-03-11T15:07:51.959Z,99719.72
2018-03-11T15:10:19.572Z,99725.78
2018-03-11T15:12:47.196Z,99726.24
2018-03-11T15:15:14.936Z,99725.45
2018-03-11T15:17:42.553Z,99729.02
2018-03-11T15:20:10.185Z,99714.69
2018-03-11T15:22:37.832Z,99712.59
2018-03-11T15:25:05.457Z,99714.41
2018-03-11T15:27:33.144Z,99717.61
2018-03-11T15:30:00.812Z,99712.97
2018-03-11T15:32:28.423Z,99709.22
2018-03-11T15:34:56.129Z,99695.87
2018-03-11T15:37:23.790Z,99692.95
2018-03-11T15:39:51.425Z,99683.47
2018-03-11T15:42:19.040Z,99681.48
2018-03-11T15:44:46.672Z,99686.38
2018-03-11T15:47:14.285Z,99678.19
2018-03-11T15:49:41.895Z,99672.66
2018-03-11T15:52:09.533Z,99659.32
2018-03-11T15:54:37.225Z,99659.46
2018-03-11T15:57:04.884Z,99651.30
2018-03-11T15:59:32.498Z,99659.73
2018-03-11T16:02:00.208Z,99661.63
2018-03-11T16:04:27.876Z,99653.04
2018-03-11T16:06:55.521Z,99654.95
2018-03-11T16:09:23.204Z,99646.41
2018-03-11T16:11:50.845Z,99647.92
2018-03-11T16:14:18.529Z,99652.98
2018-03-11T16:16:46.164Z,99652.80
2018-03-11T16:19:13.848Z,99648.30
2018-03-11T16:21:41.461Z,99653.40
2018-03-11T16:24:09.092Z,99658.05
2018-03-11T16:26:36.709Z,99656.55
2018-03-11T16:29:04.401Z,99656.31
2018-03-11T16:31:32.063Z,99654.77
2018-03-11T16:33:59.697Z,99656.63
2018-03-11T16:36:27.400Z,99651.59
2018-03-11T16:38:55.033Z,99656.95
2018-03-11T16:41:22.716Z,99659.70
2018-03-11T16:43:50.383Z,99661.98
2018-03-11T16:46:17.997Z,99659.95
2018-03-11T16:48:45.604Z,99666.18
2018-03-11T16:51:13.244Z,99666.28
2018-03-11T16:53:40.876Z,99670.72
2018-03-11T16:56:08.515Z,99669.52
2018-03-11T16:58:36.154Z,99671.79
2018-03-11T17:01:03.813Z,99666.70
2018-03-11T17:03:31.434Z,99668.97
2018-03-11T17:05:59.142Z,99664.31
2018-03-11T17:08:26.753Z,99665.70
2018-03-11T17:10:54.384Z,99665.77
2018-03-11T17:13:22.027Z,99669.77
2018-03-11T17:15:49.660Z,99676.80
2018-03-11T17:18:17.352Z,99685.93
2018-03-11T17:20:44.984Z,99679.49
2018-03-11T17:23:12.596Z,99680.00
2018-03-11T17:25:40.266Z,99675.72
2018-03-11T17:28:07.892Z,99674.47
2018-03-11T17:30:35.547Z,99680.17
2018-03-11T17:33:03.214Z,99682.40
2018-03-11T17:35:30.889Z,99683.34
2018-03-11T17:37:58.641Z,99692.52
2018-03-11T17:40:26.253Z,99700.81
2018-03-11T17:42:53.901Z,99693.92
2018-03-11T17:45:21.536Z,99689.19
2018-03-11T17:47:49.164Z,99690.95
2018-03-11T17:50:16.780Z,99697.09
2018-03-11T17:52:44.529Z,99692.39
2018-03-11T17:55:12.141Z,99691.16
2018-03-11T17:57:39.845Z,99686.45
2018-03-11T18:00:07.456Z,99685.22
2018-03-11T18:02:35.177Z,99690.49
2018-03-11T18:05:02.841Z,99684.51
2018-03-11T18:07:30.500Z,99678.97
2018-03-11T18:09:58.118Z,99685.11
2018-03-11T18:12:25.824Z,99687.38
2018-03-11T18:14:53.436Z,99678.75
2018-03-11T18:17:21.153Z,99685.70
2018-03-11T18:19:48.911Z,99689.20
2018-03-11T18:22:16.574Z,99686.63
2018-03-11T18:24:44.196Z,99679.29
2018-03-11T18:27:11.869Z,99679.31
2018-03-11T18:29:39.569Z,99673.29
2018-03-11T18:32:07.266Z,99664.66
2018-03-11T18:34:34.895Z,99662.53
2018-03-11T18:37:02.552Z,99664.71
2018-03-11T18:39:30.188Z,99663.45
2018-03-11T18:41:57.796Z,99665.66
2018-03-11T18:44:25.429Z,99663.95
2018-03-11T18:46:53.104Z,99662.67
2018-03-11T18:49:20.769Z,99661.41
2018-03-11T18:51:48.432Z,99652.34
2018-03-11T18:54:16.073Z,99651.95
2018-03-11T18:56:43.687Z,99640.27
2018-03-11T18:59:11.897Z,99639.44
2018-03-11T19:01:39.521Z,99639.88
2018-03-11T19:04:07.257Z,99636.86
2018-03-11T19:06:34.872Z,99634.30
2018-03-11T19:09:02.507Z,99634.75
2018-03-11T19:11:30.151Z,99627.87
2018-03-11T19:13:57.804Z,99633.08
2018-03-11T19:16:25.464Z,99640.46
2018-03-11T19:18:53.125Z,99643.06
2018-03-11T19:21:20.796Z,99634.86
2018-03-11T19:23:48.453Z,99634.87
2018-03-11T19:26:16.081Z,99628.42
2018-03-11T19:28:43.776Z,99630.59
2018-03-11T19:31:11.412Z,99630.57
2018-03-11T19:33:39.105Z,99632.72
2018-03-11T19:36:06.768Z,99631.88
2018-03-11T19:38:34.434Z,99637.92
2018-03-11T19:41:02.084Z,99633.17
2018-03-11T19:43:29.756Z,99629.71
2018-03-11T19:45:57.412Z,99625.84
2018-03-11T19:48:25.045Z,99627.13
2018-03-11T19:50:52.745Z,99621.97
2018-03-11T19:53:20.502Z,99618.95
2018-03-11T19:55:48.168Z,99613.77
2018-03-11T19:58:15.837Z,99612.04
2018-03-11T20:00:43.477Z,99603.84
2018-03-11T20:03:11.109Z,99601.25
2018-03-11T20:05:38.722Z,99601.25
2018-03-11T20:08:06.384Z,99593.48
2018-03-11T20:10:33.988Z,99584.02
2018-03-11T20:13:01.625Z,99572.34
2018-03-11T20:15:29.257Z,99564.59
2018-03-11T20:17:56.924Z,99555.95
2018-03-11T20:20:24.592Z,99549.48
2018-03-11T20:22:52.205Z,99551.22
2018-03-11T20:25:19.829Z,99553.80
2018-03-11T20:27:47.432Z,99559.39
2018-03-11T20:30:15.065Z,99561.13
2018-03-11T20:32:42.674Z,99569.33
2018-03-11T20:35:10.303Z,99570.17
2018-03-11T20:37:38.023Z,99578.80
2018-03-11T20:40:05.673Z,99579.66
2018-03-11T20:42:33.282Z,99584.83
2018-03-11T20:45:01.009Z,99590.45
2018-03-11T20:47:28.642Z,99588.28
2018-03-11T20:49:56.346Z,99584.85
2018-03-11T20:52:23.974Z,99584.84
2018-03-11T20:54:51.645Z,99581.41
2018-03-11T20:57:19.249Z,99580.55
2018-03-11T20:59:46.892Z,99590.90
2018-03-11T21:02:14.560Z,99586.98
2018-03-11T21:04:42.215Z,99580.95
2018-03-11T21:07:09.919Z,99580.53
2018-03-11T21:09:37.509Z,99574.91
2018-03-11T21:12:05.141Z,99573.20
2018-03-11T21:14:32.864Z,99572.34
2018-03-11T21:17:00.512Z,99570.18
2018-03-11T21:19:28.193Z,99568.46
2018-03-11T21:21:55.809Z,99561.55
2018-03-11T21:24:23.448Z,99556.38
2018-03-11T21:26:51.077Z,99552.06
2018-03-11T21:29:18.704Z,99547.34
2018-03-11T21:31:46.318Z,99540.00
2018-03-11T21:34:14.589Z,99542.16
2018-03-11T21:36:42.201Z,99542.58
2018-03-11T21:39:09.833Z,99536.97
2018-03-11T21:41:37.464Z,99541.70
2018-03-11T21:44:05.121Z,99539.11
2018-03-11T21:46:32.785Z,99540.42
2018-03-11T21:49:00.452Z,99543.00
2018-03-11T21:51:28.065Z,99538.26
2018-03-11T21:53:55.771Z,99533.50
2018-03-11T21:56:23.396Z,99539.56
2018-03-11T21:58:51.100Z,99542.16
2018-03-11T22:01:18.757Z,99545.59
2018-03-11T22:03:46.424Z,99537.84
2018-03-11T22:06:14.052Z,99532.23
2018-03-11T22:08:41.748Z,99526.20
2018-03-11T22:11:09.380Z,99524.03
2018-03-11T22:13:36.989Z,99517.14
2018-03-11T22:16:04.625Z,99514.96
2018-03-11T22:18:32.238Z,99516.70
2018-03-11T22:20:59.964Z,99510.22
2018-03-11T22:23:27.633Z,99508.08
2018-03-11T22:25:55.285Z,99502.89
2018-03-11T22:28:22.891Z,99505.89
2018-03-11T22:30:50.617Z,99504.20
2018-03-11T22:33:18.248Z,99502.45
2018-03-11T22:35:45.938Z,99493.83
2018-03-11T22:38:13.600Z,99488.22
2018-03-11T22:40:41.273Z,99490.37
2018-03-11T22:43:08.900Z,99485.21
2018-03-11T22:45:36.511Z,99478.30
2018-03-11T22:48:04.145Z,99478.73
2018-03-11T22:50:31.752Z,99480.88
2018-03-11T22:52:59.472Z,99473.13
2018-03-11T22:55:27.145Z,99469.66
2018-03-11T22:57:54.800Z,99467.95
2018-03-11T23:00:22.416Z,99467.52
2018-03-11T23:02:50.044Z,99466.22
2018-03-11T23:05:17.693Z,99460.60
2018-03-11T23:07:45.456Z,99463.19
2018-03-11T23:10:13.073Z,99457.58
2018-03-11T23:12:40.776Z,99461.47
2018-03-11T23:15:08.405Z,99457.59
2018-03-11T23:17:36.017Z,99454.98
2018-03-11T23:20:03.660Z,99451.97
2018-03-11T23:22:31.274Z,99452.39
2018-03-11T23:24:58.914Z,99448.50
2018-03-11T23:27:26.520Z,99448.09
2018-03-11T23:29:54.152Z,99434.30
2018-03-11T23:32:21.765Z,99440.75
2018-03-11T23:34:49.397Z,99440.73
2018-03-11T23:37:17.010Z,99444.19
2018-03-11T23:39:44.656Z,99446.77
2018-03-11T23:42:12.330Z,99452.37
2018-03-11T23:44:39.945Z,99450.63
2018-03-11T23:47:07.580Z,99444.60
2018-03-11T23:49:35.189Z,99440.30
2018-03-11T23:52:02.826Z,99436.00
2018-03-11T23:54:30.432Z,99432.12
2018-03-11T23:56:58.065Z,99426.53
2018-03-11T23:59:25.676Z,99431.27
